sensor_id;sensor_type;location;lat;lon;timestamp;P1;durP1;ratioP1;P2;durP2;ratioP2
50355;SDS011;36264;51.296;-0.602;2022-10-22T00:01:01;5.50;;;1.42;;
50355;SDS011;36264;51.296;-0.602;2022-10-22T00:03:27;4.65;;;1.40;;
50355;SDS011;36264;51.296;-0.602;2022-10-22T00:05:52;5.07;;;1.50;;
50355;SDS011;36264;51.296;-0.602;2022-10-22T00:08:18;7.43;;;2.30;;
50355;SDS011;36264;51.296;-0.602;2022-10-22T00:10:43;6.45;;;1.70;;
50355;SDS011;36264;51.296;-0.602;2022-10-22T00:13:09;4.32;;;1.52;;
50355;SDS011;36264;51.296;-0.602;2022-10-22T00:15:35;6.03;;;1.40;;
50355;SDS011;36264;51.296;-0.602;2022-10-22T00:18:00;6.25;;;1.60;;
50355;SDS011;36264;51.296;-0.602;2022-10-22T00:20:26;3.58;;;1.20;;
50355;SDS011;36264;51.296;-0.602;2022-10-22T00:22:51;3.17;;;1.33;;
50355;SDS011;36264;51.296;-0.602;2022-10-22T00:25:16;3.92;;;1.25;;
50355;SDS011;36264;51.296;-0.602;2022-10-22T00:27:42;5.65;;;1.50;;
50355;SDS011;36264;51.296;-0.602;2022-10-22T00:30:07;5.10;;;1.50;;
50355;SDS011;36264;51.296;-0.602;2022-10-22T00:32:33;4.15;;;1.80;;
50355;SDS011;36264;51.296;-0.602;2022-10-22T00:34:59;4.22;;;1.23;;
50355;SDS011;36264;51.296;-0.602;2022-10-22T00:37:24;5.00;;;1.33;;
50355;SDS011;36264;51.296;-0.602;2022-10-22T00:39:49;3.50;;;1.27;;
50355;SDS011;36264;51.296;-0.602;2022-10-22T00:42:24;3.38;;;1.33;;
50355;SDS011;36264;51.296;-0.602;2022-10-22T00:45:05;3.85;;;1.33;;
50355;SDS011;36264;51.296;-0.602;2022-10-22T00:52:50;1.67;;;1.00;;
50355;SDS011;36264;51.296;-0.602;2022-10-22T00:55:16;7.50;;;1.65;;
50355;SDS011;36264;51.296;-0.602;2022-10-22T00:57:44;3.13;;;1.20;;
50355;SDS011;36264;51.296;-0.602;2022-10-22T01:00:10;1.60;;;1.00;;
50355;SDS011;36264;51.296;-0.602;2022-10-22T01:02:36;2.00;;;0.80;;
50355;SDS011;36264;51.296;-0.602;2022-10-22T01:05:02;4.05;;;1.50;;
50355;SDS011;36264;51.296;-0.602;2022-10-22T01:07:27;3.47;;;1.25;;
50355;SDS011;36264;51.296;-0.602;2022-10-22T01:19:07;1.92;;;0.90;;
50355;SDS011;36264;51.296;-0.602;2022-10-22T01:29:23;3.50;;;1.15;;
50355;SDS011;36264;51.296;-0.602;2022-10-22T01:32:07;4.72;;;1.02;;
50355;SDS011;36264;51.296;-0.602;2022-10-22T01:34:37;3.53;;;1.05;;
50355;SDS011;36264;51.296;-0.602;2022-10-22T01:37:05;3.67;;;1.15;;
50355;SDS011;36264;51.296;-0.602;2022-10-22T01:39:32;9.05;;;2.03;;
50355;SDS011;36264;51.296;-0.602;2022-10-22T01:42:00;3.80;;;1.20;;
50355;SDS011;36264;51.296;-0.602;2022-10-22T01:44:26;5.63;;;1.40;;
50355;SDS011;36264;51.296;-0.602;2022-10-22T01:47:17;3.05;;;1.13;;
50355;SDS011;36264;51.296;-0.602;2022-10-22T01:49:44;3.95;;;1.45;;
50355;SDS011;36264;51.296;-0.602;2022-10-22T01:55:10;4.65;;;1.48;;
50355;SDS011;36264;51.296;-0.602;2022-10-22T02:00:38;4.47;;;1.42;;
50355;SDS011;36264;51.296;-0.602;2022-10-22T02:03:13;2.95;;;1.00;;
50355;SDS011;36264;51.296;-0.602;2022-10-22T02:05:48;5.80;;;1.30;;
50355;SDS011;36264;51.296;-0.602;2022-10-22T02:08:22;8.70;;;1.70;;
50355;SDS011;36264;51.296;-0.602;2022-10-22T02:10:51;3.53;;;1.17;;
50355;SDS011;36264;51.296;-0.602;2022-10-22T02:13:19;5.97;;;1.33;;
50355;SDS011;36264;51.296;-0.602;2022-10-22T02:16:15;6.82;;;1.70;;
50355;SDS011;36264;51.296;-0.602;2022-10-22T02:19:15;4.07;;;1.58;;
50355;SDS011;36264;51.296;-0.602;2022-10-22T02:22:02;3.35;;;1.17;;
50355;SDS011;36264;51.296;-0.602;2022-10-22T02:24:29;7.13;;;1.80;;
50355;SDS011;36264;51.296;-0.602;2022-10-22T02:32:15;7.95;;;1.60;;
50355;SDS011;36264;51.296;-0.602;2022-10-22T02:34:44;5.75;;;1.42;;
50355;SDS011;36264;51.296;-0.602;2022-10-22T02:37:12;8.40;;;2.10;;
50355;SDS011;36264;51.296;-0.602;2022-10-22T02:39:38;4.22;;;1.33;;
50355;SDS011;36264;51.296;-0.602;2022-10-22T02:42:03;4.05;;;1.67;;
50355;SDS011;36264;51.296;-0.602;2022-10-22T02:44:29;3.83;;;1.20;;
50355;SDS011;36264;51.296;-0.602;2022-10-22T02:46:55;4.30;;;1.40;;
50355;SDS011;36264;51.296;-0.602;2022-10-22T02:49:20;5.60;;;1.33;;
50355;SDS011;36264;51.296;-0.602;2022-10-22T02:51:46;6.47;;;1.70;;
50355;SDS011;36264;51.296;-0.602;2022-10-22T02:54:11;4.93;;;1.60;;
50355;SDS011;36264;51.296;-0.602;2022-10-22T02:56:36;6.03;;;1.55;;
50355;SDS011;36264;51.296;-0.602;2022-10-22T02:59:02;5.43;;;1.38;;
50355;SDS011;36264;51.296;-0.602;2022-10-22T03:01:27;3.30;;;1.35;;
50355;SDS011;36264;51.296;-0.602;2022-10-22T03:03:53;5.07;;;1.48;;
50355;SDS011;36264;51.296;-0.602;2022-10-22T03:06:18;9.93;;;1.73;;
50355;SDS011;36264;51.296;-0.602;2022-10-22T03:08:44;6.07;;;1.55;;
50355;SDS011;36264;51.296;-0.602;2022-10-22T03:11:09;3.08;;;0.90;;
50355;SDS011;36264;51.296;-0.602;2022-10-22T03:13:35;3.28;;;1.00;;
50355;SDS011;36264;51.296;-0.602;2022-10-22T03:16:00;2.95;;;1.02;;
50355;SDS011;36264;51.296;-0.602;2022-10-22T03:18:26;3.55;;;1.30;;
50355;SDS011;36264;51.296;-0.602;2022-10-22T03:20:59;2.03;;;1.10;;
50355;SDS011;36264;51.296;-0.602;2022-10-22T03:23:28;4.93;;;2.15;;
50355;SDS011;36264;51.296;-0.602;2022-10-22T03:25:54;5.20;;;1.30;;
50355;SDS011;36264;51.296;-0.602;2022-10-22T03:28:20;3.60;;;1.00;;
50355;SDS011;36264;51.296;-0.602;2022-10-22T03:30:45;2.28;;;0.80;;
50355;SDS011;36264;51.296;-0.602;2022-10-22T03:33:10;2.17;;;0.88;;
50355;SDS011;36264;51.296;-0.602;2022-10-22T03:35:37;4.13;;;1.10;;
50355;SDS011;36264;51.296;-0.602;2022-10-22T03:38:08;2.10;;;0.82;;
50355;SDS011;36264;51.296;-0.602;2022-10-22T03:40:34;2.00;;;0.88;;
50355;SDS011;36264;51.296;-0.602;2022-10-22T03:42:59;4.25;;;1.25;;
50355;SDS011;36264;51.296;-0.602;2022-10-22T03:45:25;5.13;;;1.30;;
50355;SDS011;36264;51.296;-0.602;2022-10-22T03:47:50;6.25;;;1.40;;
50355;SDS011;36264;51.296;-0.602;2022-10-22T03:50:15;6.57;;;1.17;;
50355;SDS011;36264;51.296;-0.602;2022-10-22T03:52:41;4.88;;;1.70;;
50355;SDS011;36264;51.296;-0.602;2022-10-22T03:55:07;4.50;;;1.77;;
50355;SDS011;36264;51.296;-0.602;2022-10-22T03:57:33;5.00;;;1.40;;
50355;SDS011;36264;51.296;-0.602;2022-10-22T03:59:58;3.42;;;1.30;;
50355;SDS011;36264;51.296;-0.602;2022-10-22T04:02:24;3.70;;;1.20;;
50355;SDS011;36264;51.296;-0.602;2022-10-22T04:04:49;2.15;;;0.90;;
50355;SDS011;36264;51.296;-0.602;2022-10-22T04:07:15;3.83;;;1.30;;
50355;SDS011;36264;51.296;-0.602;2022-10-22T04:09:40;2.90;;;1.42;;
50355;SDS011;36264;51.296;-0.602;2022-10-22T04:12:05;6.70;;;1.42;;
50355;SDS011;36264;51.296;-0.602;2022-10-22T04:14:32;2.03;;;0.90;;
50355;SDS011;36264;51.296;-0.602;2022-10-22T04:16:58;3.53;;;1.17;;
50355;SDS011;36264;51.296;-0.602;2022-10-22T04:19:23;2.45;;;1.00;;
50355;SDS011;36264;51.296;-0.602;2022-10-22T04:21:49;4.10;;;1.30;;
50355;SDS011;36264;51.296;-0.602;2022-10-22T04:24:14;1.38;;;0.75;;
50355;SDS011;36264;51.296;-0.602;2022-10-22T04:26:40;1.67;;;1.00;;
50355;SDS011;36264;51.296;-0.602;2022-10-22T04:29:05;1.20;;;0.75;;
50355;SDS011;36264;51.296;-0.602;2022-10-22T04:31:31;2.30;;;0.98;;
50355;SDS011;36264;51.296;-0.602;2022-10-22T04:33:58;0.70;;;0.63;;
50355;SDS011;36264;51.296;-0.602;2022-10-22T04:36:25;0.60;;;0.60;;
50355;SDS011;36264;51.296;-0.602;2022-10-22T04:38:52;0.50;;;0.50;;
50355;SDS011;36264;51.296;-0.602;2022-10-22T04:41:21;1.08;;;0.60;;
50355;SDS011;36264;51.296;-0.602;2022-10-22T04:43:48;4.00;;;1.20;;
50355;SDS011;36264;51.296;-0.602;2022-10-22T04:46:14;1.45;;;0.73;;
50355;SDS011;36264;51.296;-0.602;2022-10-22T04:48:42;4.88;;;0.80;;
50355;SDS011;36264;51.296;-0.602;2022-10-22T04:51:09;1.77;;;0.77;;
50355;SDS011;36264;51.296;-0.602;2022-10-22T04:53:36;9.05;;;0.98;;
50355;SDS011;36264;51.296;-0.602;2022-10-22T04:58:33;5.93;;;0.70;;
50355;SDS011;36264;51.296;-0.602;2022-10-22T05:00:59;0.70;;;0.68;;
50355;SDS011;36264;51.296;-0.602;2022-10-22T05:03:24;0.57;;;0.50;;
50355;SDS011;36264;51.296;-0.602;2022-10-22T05:05:49;2.92;;;0.55;;
50355;SDS011;36264;51.296;-0.602;2022-10-22T05:08:15;11.18;;;0.80;;
50355;SDS011;36264;51.296;-0.602;2022-10-22T05:10:40;0.65;;;0.65;;
50355;SDS011;36264;51.296;-0.602;2022-10-22T05:13:06;1.42;;;0.70;;
50355;SDS011;36264;51.296;-0.602;2022-10-22T05:15:32;31.27;;;1.75;;
50355;SDS011;36264;51.296;-0.602;2022-10-22T05:17:57;0.90;;;0.90;;
50355;SDS011;36264;51.296;-0.602;2022-10-22T05:20:23;0.70;;;0.70;;
50355;SDS011;36264;51.296;-0.602;2022-10-22T05:22:48;13.60;;;1.05;;
50355;SDS011;36264;51.296;-0.602;2022-10-22T05:25:13;1.67;;;0.50;;
50355;SDS011;36264;51.296;-0.602;2022-10-22T05:27:39;5.05;;;0.70;;
50355;SDS011;36264;51.296;-0.602;2022-10-22T05:30:04;10.50;;;0.70;;
50355;SDS011;36264;51.296;-0.602;2022-10-22T05:32:30;10.23;;;1.10;;
50355;SDS011;36264;51.296;-0.602;2022-10-22T05:34:56;2.17;;;0.60;;
50355;SDS011;36264;51.296;-0.602;2022-10-22T05:37:21;16.77;;;0.95;;
50355;SDS011;36264;51.296;-0.602;2022-10-22T05:39:46;2.05;;;0.52;;
50355;SDS011;36264;51.296;-0.602;2022-10-22T05:42:12;1.45;;;0.50;;
50355;SDS011;36264;51.296;-0.602;2022-10-22T05:44:37;0.60;;;0.60;;
50355;SDS011;36264;51.296;-0.602;2022-10-22T05:47:04;0.60;;;0.60;;
50355;SDS011;36264;51.296;-0.602;2022-10-22T05:49:30;1.77;;;0.52;;
50355;SDS011;36264;51.296;-0.602;2022-10-22T05:51:55;1.00;;;0.57;;
50355;SDS011;36264;51.296;-0.602;2022-10-22T05:54:21;2.53;;;0.75;;
50355;SDS011;36264;51.296;-0.602;2022-10-22T05:56:46;1.75;;;0.50;;
50355;SDS011;36264;51.296;-0.602;2022-10-22T05:59:12;0.82;;;0.77;;
50355;SDS011;36264;51.296;-0.602;2022-10-22T06:01:38;2.10;;;1.17;;
50355;SDS011;36264;51.296;-0.602;2022-10-22T06:04:05;3.50;;;1.42;;
50355;SDS011;36264;51.296;-0.602;2022-10-22T06:06:35;3.05;;;0.82;;
50355;SDS011;36264;51.296;-0.602;2022-10-22T06:11:53;1.60;;;0.90;;
50355;SDS011;36264;51.296;-0.602;2022-10-22T06:14:20;0.80;;;0.80;;
50355;SDS011;36264;51.296;-0.602;2022-10-22T06:16:45;0.80;;;0.80;;
50355;SDS011;36264;51.296;-0.602;2022-10-22T06:19:12;2.95;;;1.27;;
50355;SDS011;36264;51.296;-0.602;2022-10-22T06:21:39;2.42;;;0.95;;
50355;SDS011;36264;51.296;-0.602;2022-10-22T06:24:04;5.18;;;1.20;;
50355;SDS011;36264;51.296;-0.602;2022-10-22T06:26:30;1.05;;;0.90;;
50355;SDS011;36264;51.296;-0.602;2022-10-22T06:28:56;4.13;;;1.30;;
50355;SDS011;36264;51.296;-0.602;2022-10-22T06:31:22;5.95;;;1.23;;
50355;SDS011;36264;51.296;-0.602;2022-10-22T06:33:49;3.17;;;1.10;;
50355;SDS011;36264;51.296;-0.602;2022-10-22T06:36:15;7.22;;;1.48;;
50355;SDS011;36264;51.296;-0.602;2022-10-22T06:38:42;1.85;;;1.00;;
50355;SDS011;36264;51.296;-0.602;2022-10-22T06:41:11;4.82;;;1.23;;
50355;SDS011;36264;51.296;-0.602;2022-10-22T06:43:39;2.13;;;1.13;;
50355;SDS011;36264;51.296;-0.602;2022-10-22T06:46:06;3.72;;;1.20;;
50355;SDS011;36264;51.296;-0.602;2022-10-22T06:48:39;1.67;;;0.90;;
50355;SDS011;36264;51.296;-0.602;2022-10-22T06:51:09;2.90;;;1.23;;
50355;SDS011;36264;51.296;-0.602;2022-10-22T06:53:36;2.28;;;1.17;;
50355;SDS011;36264;51.296;-0.602;2022-10-22T06:56:06;4.47;;;1.02;;
50355;SDS011;36264;51.296;-0.602;2022-10-22T06:58:33;1.77;;;0.93;;
50355;SDS011;36264;51.296;-0.602;2022-10-22T07:00:59;1.90;;;0.80;;
50355;SDS011;36264;51.296;-0.602;2022-10-22T07:03:29;2.17;;;0.98;;
50355;SDS011;36264;51.296;-0.602;2022-10-22T07:05:57;3.38;;;1.20;;
50355;SDS011;36264;51.296;-0.602;2022-10-22T07:08:27;2.00;;;1.02;;
50355;SDS011;36264;51.296;-0.602;2022-10-22T07:10:53;3.33;;;1.00;;
50355;SDS011;36264;51.296;-0.602;2022-10-22T07:13:19;3.13;;;1.10;;
50355;SDS011;36264;51.296;-0.602;2022-10-22T07:15:45;2.40;;;1.10;;
50355;SDS011;36264;51.296;-0.602;2022-10-22T07:18:15;2.20;;;0.90;;
50355;SDS011;36264;51.296;-0.602;2022-10-22T07:20:40;1.90;;;1.02;;
50355;SDS011;36264;51.296;-0.602;2022-10-22T07:23:06;3.40;;;0.95;;
50355;SDS011;36264;51.296;-0.602;2022-10-22T07:25:31;4.15;;;1.30;;
50355;SDS011;36264;51.296;-0.602;2022-10-22T07:27:57;2.67;;;1.20;;
50355;SDS011;36264;51.296;-0.602;2022-10-22T07:30:22;4.10;;;1.20;;
50355;SDS011;36264;51.296;-0.602;2022-10-22T07:32:47;3.65;;;1.20;;
50355;SDS011;36264;51.296;-0.602;2022-10-22T07:35:13;5.03;;;1.23;;
50355;SDS011;36264;51.296;-0.602;2022-10-22T07:37:38;3.90;;;1.17;;
50355;SDS011;36264;51.296;-0.602;2022-10-22T07:40:03;4.80;;;1.27;;
50355;SDS011;36264;51.296;-0.602;2022-10-22T07:42:29;4.43;;;1.45;;
50355;SDS011;36264;51.296;-0.602;2022-10-22T07:44:54;5.30;;;1.52;;
50355;SDS011;36264;51.296;-0.602;2022-10-22T07:47:20;4.38;;;1.20;;
50355;SDS011;36264;51.296;-0.602;2022-10-22T07:49:45;3.65;;;1.27;;
50355;SDS011;36264;51.296;-0.602;2022-10-22T07:52:11;2.13;;;1.10;;
50355;SDS011;36264;51.296;-0.602;2022-10-22T07:54:36;4.80;;;1.50;;
50355;SDS011;36264;51.296;-0.602;2022-10-22T07:57:01;4.10;;;1.48;;
50355;SDS011;36264;51.296;-0.602;2022-10-22T07:59:27;4.28;;;1.17;;
50355;SDS011;36264;51.296;-0.602;2022-10-22T08:01:52;5.30;;;1.40;;
50355;SDS011;36264;51.296;-0.602;2022-10-22T08:04:18;4.15;;;1.40;;
50355;SDS011;36264;51.296;-0.602;2022-10-22T08:06:43;2.95;;;1.10;;
50355;SDS011;36264;51.296;-0.602;2022-10-22T08:09:08;5.10;;;1.30;;
50355;SDS011;36264;51.296;-0.602;2022-10-22T08:11:34;4.22;;;1.45;;
50355;SDS011;36264;51.296;-0.602;2022-10-22T08:13:59;3.10;;;1.30;;
50355;SDS011;36264;51.296;-0.602;2022-10-22T08:16:25;3.47;;;1.40;;
50355;SDS011;36264;51.296;-0.602;2022-10-22T08:18:50;4.80;;;1.05;;
50355;SDS011;36264;51.296;-0.602;2022-10-22T08:21:15;6.70;;;1.42;;
50355;SDS011;36264;51.296;-0.602;2022-10-22T08:23:41;3.85;;;1.42;;
50355;SDS011;36264;51.296;-0.602;2022-10-22T08:26:07;4.70;;;1.38;;
50355;SDS011;36264;51.296;-0.602;2022-10-22T08:28:33;8.13;;;2.08;;
50355;SDS011;36264;51.296;-0.602;2022-10-22T08:31:01;3.28;;;1.10;;
50355;SDS011;36264;51.296;-0.602;2022-10-22T08:33:28;4.82;;;1.40;;
50355;SDS011;36264;51.296;-0.602;2022-10-22T08:35:53;4.63;;;1.67;;
50355;SDS011;36264;51.296;-0.602;2022-10-22T08:38:19;4.60;;;1.33;;
50355;SDS011;36264;51.296;-0.602;2022-10-22T08:40:49;6.25;;;1.73;;
50355;SDS011;36264;51.296;-0.602;2022-10-22T08:49:19;4.80;;;1.65;;
50355;SDS011;36264;51.296;-0.602;2022-10-22T08:51:48;2.63;;;1.10;;
50355;SDS011;36264;51.296;-0.602;2022-10-22T09:08:35;6.35;;;1.52;;
50355;SDS011;36264;51.296;-0.602;2022-10-22T09:11:06;7.85;;;1.75;;
50355;SDS011;36264;51.296;-0.602;2022-10-22T09:13:39;5.07;;;1.45;;
50355;SDS011;36264;51.296;-0.602;2022-10-22T09:21:37;9.32;;;2.00;;
50355;SDS011;36264;51.296;-0.602;2022-10-22T09:26:58;4.68;;;1.55;;
50355;SDS011;36264;51.296;-0.602;2022-10-22T09:29:28;7.57;;;1.88;;
50355;SDS011;36264;51.296;-0.602;2022-10-22T09:31:56;4.80;;;1.75;;
50355;SDS011;36264;51.296;-0.602;2022-10-22T09:34:22;5.90;;;1.73;;
50355;SDS011;36264;51.296;-0.602;2022-10-22T09:36:55;5.47;;;1.90;;
50355;SDS011;36264;51.296;-0.602;2022-10-22T09:39:24;10.00;;;2.35;;
50355;SDS011;36264;51.296;-0.602;2022-10-22T09:41:52;12.00;;;2.10;;
50355;SDS011;36264;51.296;-0.602;2022-10-22T09:44:18;6.97;;;2.22;;
50355;SDS011;36264;51.296;-0.602;2022-10-22T09:46:44;7.07;;;1.70;;
50355;SDS011;36264;51.296;-0.602;2022-10-22T09:49:16;9.30;;;2.13;;
50355;SDS011;36264;51.296;-0.602;2022-10-22T09:51:57;8.70;;;2.58;;
50355;SDS011;36264;51.296;-0.602;2022-10-22T09:54:25;10.48;;;1.77;;
50355;SDS011;36264;51.296;-0.602;2022-10-22T09:57:02;9.80;;;2.30;;
50355;SDS011;36264;51.296;-0.602;2022-10-22T09:59:31;9.13;;;2.13;;
50355;SDS011;36264;51.296;-0.602;2022-10-22T10:02:05;10.73;;;1.88;;
50355;SDS011;36264;51.296;-0.602;2022-10-22T10:04:39;7.57;;;2.00;;
50355;SDS011;36264;51.296;-0.602;2022-10-22T10:07:18;6.35;;;1.73;;
50355;SDS011;36264;51.296;-0.602;2022-10-22T10:09:48;6.97;;;1.92;;
50355;SDS011;36264;51.296;-0.602;2022-10-22T10:23:12;7.82;;;2.35;;
50355;SDS011;36264;51.296;-0.602;2022-10-22T10:26:00;12.20;;;2.00;;
50355;SDS011;36264;51.296;-0.602;2022-10-22T10:33:59;9.02;;;2.53;;
50355;SDS011;36264;51.296;-0.602;2022-10-22T10:39:27;10.70;;;2.00;;
50355;SDS011;36264;51.296;-0.602;2022-10-22T10:47:28;9.32;;;2.25;;
50355;SDS011;36264;51.296;-0.602;2022-10-22T10:50:58;13.75;;;2.42;;
50355;SDS011;36264;51.296;-0.602;2022-10-22T10:59:04;9.32;;;2.70;;
50355;SDS011;36264;51.296;-0.602;2022-10-22T11:06:31;10.70;;;1.83;;
50355;SDS011;36264;51.296;-0.602;2022-10-22T11:09:02;7.07;;;1.65;;
50355;SDS011;36264;51.296;-0.602;2022-10-22T11:11:32;6.47;;;1.80;;
50355;SDS011;36264;51.296;-0.602;2022-10-22T11:14:15;7.75;;;2.10;;
50355;SDS011;36264;51.296;-0.602;2022-10-22T11:16:50;6.10;;;2.28;;
50355;SDS011;36264;51.296;-0.602;2022-10-22T11:19:24;6.05;;;1.80;;
50355;SDS011;36264;51.296;-0.602;2022-10-22T11:24:43;8.30;;;1.90;;
50355;SDS011;36264;51.296;-0.602;2022-10-22T11:29:43;6.80;;;1.85;;
50355;SDS011;36264;51.296;-0.602;2022-10-22T11:32:19;8.38;;;2.20;;
50355;SDS011;36264;51.296;-0.602;2022-10-22T11:34:50;6.80;;;1.70;;
50355;SDS011;36264;51.296;-0.602;2022-10-22T11:37:18;5.65;;;1.70;;
50355;SDS011;36264;51.296;-0.602;2022-10-22T11:42:22;4.95;;;1.50;;
50355;SDS011;36264;51.296;-0.602;2022-10-22T11:50:24;6.55;;;2.45;;
50355;SDS011;36264;51.296;-0.602;2022-10-22T11:53:05;7.38;;;2.83;;
50355;SDS011;36264;51.296;-0.602;2022-10-22T11:58:43;4.15;;;1.50;;
50355;SDS011;36264;51.296;-0.602;2022-10-22T12:03:50;6.43;;;1.75;;
50355;SDS011;36264;51.296;-0.602;2022-10-22T12:13:52;8.43;;;1.95;;
50355;SDS011;36264;51.296;-0.602;2022-10-22T12:16:40;5.05;;;1.70;;
50355;SDS011;36264;51.296;-0.602;2022-10-22T12:21:34;4.57;;;1.63;;
50355;SDS011;36264;51.296;-0.602;2022-10-22T12:24:02;7.50;;;2.10;;
50355;SDS011;36264;51.296;-0.602;2022-10-22T12:26:30;7.85;;;2.22;;
50355;SDS011;36264;51.296;-0.602;2022-10-22T12:28:59;5.47;;;1.83;;
50355;SDS011;36264;51.296;-0.602;2022-10-22T12:31:26;4.22;;;1.63;;
50355;SDS011;36264;51.296;-0.602;2022-10-22T12:33:55;3.35;;;1.45;;
50355;SDS011;36264;51.296;-0.602;2022-10-22T12:36:24;5.30;;;1.60;;
50355;SDS011;36264;51.296;-0.602;2022-10-22T12:38:50;3.13;;;1.23;;
50355;SDS011;36264;51.296;-0.602;2022-10-22T12:41:15;3.30;;;1.52;;
50355;SDS011;36264;51.296;-0.602;2022-10-22T12:43:41;5.90;;;1.52;;
50355;SDS011;36264;51.296;-0.602;2022-10-22T12:46:13;3.53;;;1.30;;
50355;SDS011;36264;51.296;-0.602;2022-10-22T12:48:41;5.03;;;1.60;;
50355;SDS011;36264;51.296;-0.602;2022-10-22T12:51:12;2.15;;;1.35;;
50355;SDS011;36264;51.296;-0.602;2022-10-22T12:53:43;6.10;;;1.70;;
50355;SDS011;36264;51.296;-0.602;2022-10-22T12:56:20;6.38;;;1.52;;
50355;SDS011;36264;51.296;-0.602;2022-10-22T12:58:57;4.82;;;1.60;;
50355;SDS011;36264;51.296;-0.602;2022-10-22T13:01:24;5.75;;;1.40;;
50355;SDS011;36264;51.296;-0.602;2022-10-22T13:04:02;6.63;;;1.50;;
50355;SDS011;36264;51.296;-0.602;2022-10-22T13:06:44;6.13;;;1.80;;
50355;SDS011;36264;51.296;-0.602;2022-10-22T13:20:03;6.55;;;1.80;;
50355;SDS011;36264;51.296;-0.602;2022-10-22T13:22:40;5.15;;;1.55;;
50355;SDS011;36264;51.296;-0.602;2022-10-22T13:35:25;3.75;;;1.33;;
50355;SDS011;36264;51.296;-0.602;2022-10-22T13:37:52;5.53;;;2.13;;
50355;SDS011;36264;51.296;-0.602;2022-10-22T13:40:18;4.95;;;1.90;;
50355;SDS011;36264;51.296;-0.602;2022-10-22T13:42:44;4.93;;;1.92;;
50355;SDS011;36264;51.296;-0.602;2022-10-22T13:45:10;5.63;;;2.20;;
50355;SDS011;36264;51.296;-0.602;2022-10-22T13:47:36;7.93;;;1.90;;
50355;SDS011;36264;51.296;-0.602;2022-10-22T13:50:02;5.25;;;1.60;;
50355;SDS011;36264;51.296;-0.602;2022-10-22T13:52:39;6.32;;;1.63;;
50355;SDS011;36264;51.296;-0.602;2022-10-22T13:57:39;6.57;;;2.28;;
50355;SDS011;36264;51.296;-0.602;2022-10-22T14:00:05;7.25;;;1.98;;
50355;SDS011;36264;51.296;-0.602;2022-10-22T14:02:31;4.80;;;1.50;;
50355;SDS011;36264;51.296;-0.602;2022-10-22T14:04:56;6.75;;;1.83;;
50355;SDS011;36264;51.296;-0.602;2022-10-22T14:07:27;7.45;;;1.83;;
50355;SDS011;36264;51.296;-0.602;2022-10-22T14:09:52;5.10;;;1.80;;
50355;SDS011;36264;51.296;-0.602;2022-10-22T14:12:18;4.43;;;1.75;;
50355;SDS011;36264;51.296;-0.602;2022-10-22T14:14:43;4.40;;;1.70;;
50355;SDS011;36264;51.296;-0.602;2022-10-22T14:17:12;3.92;;;1.77;;
50355;SDS011;36264;51.296;-0.602;2022-10-22T14:19:41;5.60;;;1.80;;
50355;SDS011;36264;51.296;-0.602;2022-10-22T14:22:18;5.03;;;1.88;;
50355;SDS011;36264;51.296;-0.602;2022-10-22T14:24:44;5.43;;;1.80;;
50355;SDS011;36264;51.296;-0.602;2022-10-22T14:27:10;5.65;;;1.77;;
50355;SDS011;36264;51.296;-0.602;2022-10-22T14:29:37;4.88;;;2.03;;
50355;SDS011;36264;51.296;-0.602;2022-10-22T14:32:05;4.30;;;1.65;;
50355;SDS011;36264;51.296;-0.602;2022-10-22T14:34:36;4.88;;;1.60;;
50355;SDS011;36264;51.296;-0.602;2022-10-22T14:37:01;5.88;;;1.73;;
50355;SDS011;36264;51.296;-0.602;2022-10-22T14:39:26;3.20;;;1.60;;
50355;SDS011;36264;51.296;-0.602;2022-10-22T14:41:52;8.93;;;2.20;;
50355;SDS011;36264;51.296;-0.602;2022-10-22T14:44:17;8.68;;;1.90;;
50355;SDS011;36264;51.296;-0.602;2022-10-22T14:46:42;6.32;;;2.00;;
50355;SDS011;36264;51.296;-0.602;2022-10-22T14:49:08;5.85;;;1.70;;
50355;SDS011;36264;51.296;-0.602;2022-10-22T14:51:34;4.43;;;2.10;;
50355;SDS011;36264;51.296;-0.602;2022-10-22T14:53:59;5.43;;;1.67;;
50355;SDS011;36264;51.296;-0.602;2022-10-22T14:56:25;7.03;;;2.10;;
50355;SDS011;36264;51.296;-0.602;2022-10-22T14:58:50;7.60;;;2.33;;
50355;SDS011;36264;51.296;-0.602;2022-10-22T15:01:17;4.93;;;1.75;;
50355;SDS011;36264;51.296;-0.602;2022-10-22T15:03:42;6.13;;;1.75;;
50355;SDS011;36264;51.296;-0.602;2022-10-22T15:06:08;5.00;;;1.77;;
50355;SDS011;36264;51.296;-0.602;2022-10-22T15:08:33;7.20;;;2.08;;
50355;SDS011;36264;51.296;-0.602;2022-10-22T15:11:02;5.35;;;1.63;;
50355;SDS011;36264;51.296;-0.602;2022-10-22T15:13:32;7.85;;;1.80;;
50355;SDS011;36264;51.296;-0.602;2022-10-22T15:15:58;6.00;;;1.90;;
50355;SDS011;36264;51.296;-0.602;2022-10-22T15:18:24;6.75;;;1.88;;
50355;SDS011;36264;51.296;-0.602;2022-10-22T15:20:57;6.30;;;1.75;;
50355;SDS011;36264;51.296;-0.602;2022-10-22T15:23:24;3.63;;;1.40;;
50355;SDS011;36264;51.296;-0.602;2022-10-22T15:25:50;6.95;;;2.38;;
50355;SDS011;36264;51.296;-0.602;2022-10-22T15:28:15;3.15;;;1.67;;
50355;SDS011;36264;51.296;-0.602;2022-10-22T15:30:40;4.00;;;1.70;;
50355;SDS011;36264;51.296;-0.602;2022-10-22T15:33:06;4.93;;;1.60;;
50355;SDS011;36264;51.296;-0.602;2022-10-22T15:35:31;4.10;;;1.40;;
50355;SDS011;36264;51.296;-0.602;2022-10-22T15:37:57;5.35;;;1.60;;
50355;SDS011;36264;51.296;-0.602;2022-10-22T15:40:22;3.35;;;1.45;;
50355;SDS011;36264;51.296;-0.602;2022-10-22T15:42:48;6.28;;;1.80;;
50355;SDS011;36264;51.296;-0.602;2022-10-22T15:45:13;9.70;;;2.28;;
50355;SDS011;36264;51.296;-0.602;2022-10-22T15:47:40;5.57;;;1.63;;
50355;SDS011;36264;51.296;-0.602;2022-10-22T15:50:09;5.40;;;1.85;;
50355;SDS011;36264;51.296;-0.602;2022-10-22T15:52:35;4.65;;;1.40;;
50355;SDS011;36264;51.296;-0.602;2022-10-22T15:55:00;8.50;;;1.70;;
50355;SDS011;36264;51.296;-0.602;2022-10-22T15:57:28;6.95;;;2.78;;
50355;SDS011;36264;51.296;-0.602;2022-10-22T15:59:53;4.65;;;1.40;;
50355;SDS011;36264;51.296;-0.602;2022-10-22T16:02:19;4.40;;;1.60;;
50355;SDS011;36264;51.296;-0.602;2022-10-22T16:04:44;3.05;;;1.30;;
50355;SDS011;36264;51.296;-0.602;2022-10-22T16:07:09;4.10;;;1.73;;
50355;SDS011;36264;51.296;-0.602;2022-10-22T16:09:35;5.03;;;1.55;;
50355;SDS011;36264;51.296;-0.602;2022-10-22T16:12:00;6.32;;;1.85;;
50355;SDS011;36264;51.296;-0.602;2022-10-22T16:14:26;4.40;;;1.50;;
50355;SDS011;36264;51.296;-0.602;2022-10-22T16:16:53;4.95;;;1.75;;
50355;SDS011;36264;51.296;-0.602;2022-10-22T16:19:20;3.70;;;1.25;;
50355;SDS011;36264;51.296;-0.602;2022-10-22T16:21:48;4.63;;;1.75;;
50355;SDS011;36264;51.296;-0.602;2022-10-22T16:24:15;3.75;;;1.70;;
50355;SDS011;36264;51.296;-0.602;2022-10-22T16:26:41;3.55;;;1.10;;
50355;SDS011;36264;51.296;-0.602;2022-10-22T16:29:06;5.35;;;1.63;;
50355;SDS011;36264;51.296;-0.602;2022-10-22T16:31:34;4.80;;;1.50;;
50355;SDS011;36264;51.296;-0.602;2022-10-22T16:34:00;2.67;;;1.27;;
50355;SDS011;36264;51.296;-0.602;2022-10-22T16:36:25;2.60;;;1.38;;
50355;SDS011;36264;51.296;-0.602;2022-10-22T16:38:50;4.72;;;1.77;;
50355;SDS011;36264;51.296;-0.602;2022-10-22T16:41:17;7.35;;;2.10;;
50355;SDS011;36264;51.296;-0.602;2022-10-22T16:43:44;3.53;;;1.30;;
50355;SDS011;36264;51.296;-0.602;2022-10-22T16:46:13;4.07;;;1.45;;
50355;SDS011;36264;51.296;-0.602;2022-10-22T16:48:43;6.18;;;2.10;;
50355;SDS011;36264;51.296;-0.602;2022-10-22T16:51:11;4.95;;;2.00;;
50355;SDS011;36264;51.296;-0.602;2022-10-22T16:53:37;4.25;;;1.30;;
50355;SDS011;36264;51.296;-0.602;2022-10-22T16:56:03;4.30;;;1.60;;
50355;SDS011;36264;51.296;-0.602;2022-10-22T16:58:28;4.43;;;1.33;;
50355;SDS011;36264;51.296;-0.602;2022-10-22T17:00:54;5.18;;;1.95;;
50355;SDS011;36264;51.296;-0.602;2022-10-22T17:03:19;10.45;;;2.30;;
50355;SDS011;36264;51.296;-0.602;2022-10-22T17:05:45;5.65;;;1.83;;
50355;SDS011;36264;51.296;-0.602;2022-10-22T17:08:10;4.70;;;1.83;;
50355;SDS011;36264;51.296;-0.602;2022-10-22T17:10:36;6.57;;;1.70;;
50355;SDS011;36264;51.296;-0.602;2022-10-22T17:13:02;5.63;;;1.88;;